Time;durP1;ratioP1;P1;durP2;ratioP2;P2;SDS_P1;SDS_P2;PMS_P1;PMS_P2;Temp;Humidity;BMP_temperature;BMP_pressure;BME280_temperature;BME280_humidity;BME280_pressure;Samples;Min_cycle;Max_cycle;Signal;HPM_P1;HPM_P2
2023/08/02 00:01:53;;;;;;;4.32;3.03;;;14.30;99.90;;;15.04;96.19;97122.97;10397347;28;20248;-69
2023/08/02 00:06:56;;;;;;;4.00;3.17;;;14.30;99.90;;;15.01;95.08;97130.63;10393436;28;20304;-69
2023/08/02 00:12:01;;;;;;;4.47;2.92;;;14.20;99.90;;;14.66;96.53;97137.34;10401769;28;20237;-69
2023/08/02 00:17:04;;;;;;;3.25;2.80;;;14.00;99.90;;;14.47;96.95;97129.88;10384576;28;20251;-69
2023/08/02 00:22:07;;;;;;;3.40;3.20;;;13.80;99.90;;;14.41;96.14;97126.28;10398572;28;20237;-68
2023/08/02 00:27:12;;;;;;;4.47;3.38;;;13.80;99.90;;;14.41;96.51;97121.13;10400991;28;20232;-69
2023/08/02 00:32:15;;;;;;;5.75;3.03;;;13.70;99.90;;;14.40;98.41;97123.69;10401978;28;20237;-69
2023/08/02 00:37:18;;;;;;;5.80;3.13;;;13.70;99.90;;;14.36;97.89;97103.84;10400828;28;20308;-69
2023/08/02 00:42:23;;;;;;;7.07;3.15;;;13.70;99.90;;;14.31;98.96;97090.00;10403040;28;20271;-69
2023/08/02 00:47:26;;;;;;;4.90;3.28;;;13.70;99.90;;;14.37;100.00;97083.31;10403313;28;20240;-69
2023/08/02 00:52:29;;;;;;;4.70;3.15;;;13.70;99.90;;;14.22;100.00;97088.00;10399164;28;20237;-69
2023/08/02 00:57:34;;;;;;;6.20;3.17;;;13.60;99.90;;;14.26;100.00;97079.56;10403597;28;20260;-69
2023/08/02 01:02:37;;;;;;;3.92;3.17;;;13.60;99.90;;;14.40;100.00;97070.56;10401069;28;20232;-69
2023/08/02 01:07:48;;;;;;;3.00;2.80;;;13.70;99.90;;;14.55;99.22;97065.00;10390086;28;20261;-69
2023/08/02 01:12:55;;;;;;;3.88;2.85;;;13.90;99.90;;;14.64;99.01;97051.53;10397335;28;20218;-69
2023/08/02 01:17:59;;;;;;;3.72;3.33;;;14.00;99.90;;;14.59;99.39;97069.44;10396505;28;20728;-69
2023/08/02 01:23:04;;;;;;;3.30;3.10;;;14.00;99.90;;;14.73;99.46;97066.34;10397369;28;20717;-69
2023/08/02 01:28:14;;;;;;;5.18;3.05;;;14.00;99.90;;;14.68;98.18;97055.97;10403281;28;20237;-69
2023/08/02 01:33:18;;;;;;;3.45;3.15;;;13.90;99.90;;;14.48;97.66;97044.19;10405111;28;20705;-69
2023/08/02 01:38:22;;;;;;;3.60;3.30;;;13.60;99.90;;;14.25;99.74;97036.69;10403549;28;20249;-69
2023/08/02 01:43:26;;;;;;;5.75;4.10;;;13.50;99.90;;;14.03;100.00;97029.19;10401588;28;20716;-69
2023/08/02 01:48:29;;;;;;;3.33;3.00;;;13.40;99.90;;;13.97;100.00;97020.44;10401980;28;20234;-69
2023/08/02 01:53:33;;;;;;;4.88;3.25;;;13.30;99.90;;;14.08;100.00;97013.06;10387173;28;20229;-69
2023/08/02 01:58:36;;;;;;;3.10;2.90;;;13.40;99.90;;;13.96;100.00;97012.69;10404779;28;20698;-69
2023/08/02 02:03:39;;;;;;;4.03;3.20;;;13.30;99.90;;;14.09;100.00;97017.38;10402040;28;20255;-69
2023/08/02 02:08:44;;;;;;;3.30;3.10;;;13.40;99.90;;;14.11;100.00;97013.16;10406252;28;20218;-69
2023/08/02 02:13:47;;;;;;;3.00;2.80;;;13.40;99.90;;;14.05;100.00;97012.09;10398485;28;20229;-69
2023/08/02 02:18:50;;;;;;;6.95;3.55;;;13.30;99.90;;;14.03;100.00;97018.91;10400132;28;20229;-69
2023/08/02 02:23:55;;;;;;;3.53;3.13;;;13.30;99.90;;;14.08;100.00;96989.03;10399732;28;20599;-69
2023/08/02 02:28:58;;;;;;;4.63;3.45;;;13.30;99.90;;;13.83;100.00;96985.78;10401255;28;20653;-69
2023/08/02 02:34:01;;;;;;;6.32;3.85;;;13.10;99.90;;;13.65;100.00;96982.63;10379900;28;20213;-69
2023/08/02 02:39:06;;;;;;;4.07;3.28;;;13.00;99.90;;;13.61;100.00;96976.53;10400852;28;20248;-69
2023/08/02 02:44:09;;;;;;;4.00;3.60;;;13.00;99.90;;;13.65;100.00;96955.28;10396683;28;20612;-69
2023/08/02 02:49:12;;;;;;;4.25;3.85;;;13.00;99.90;;;13.79;100.00;96959.94;10391454;28;20604;-69
2023/08/02 02:54:16;;;;;;;3.85;3.55;;;13.10;99.90;;;13.66;100.00;96958.72;10398104;28;20228;-69
2023/08/02 02:59:19;;;;;;;3.53;3.22;;;13.00;99.90;;;13.50;100.00;96942.81;10397834;28;20221;-69
2023/08/02 03:04:22;;;;;;;5.07;3.58;;;12.90;99.90;;;13.51;100.00;96951.41;10394056;28;20240;-69
2023/08/02 03:09:27;;;;;;;4.10;3.30;;;12.90;99.90;;;13.55;100.00;96942.97;10386481;28;20226;-69
2023/08/02 03:14:30;;;;;;;4.40;3.67;;;12.90;99.90;;;13.60;100.00;96936.28;10390888;28;20225;-69
2023/08/02 03:19:33;;;;;;;4.28;3.75;;;13.00;99.90;;;13.67;100.00;96932.19;10385025;28;20830;-69
2023/08/02 03:24:38;;;;;;;3.88;3.35;;;13.00;99.90;;;13.30;100.00;96925.94;10398722;28;20735;-69
2023/08/02 03:29:41;;;;;;;4.10;3.38;;;12.80;99.90;;;13.44;100.00;96922.09;10397309;28;20234;-69
2023/08/02 03:34:44;;;;;;;3.58;3.28;;;12.80;99.90;;;13.61;100.00;96907.19;10396813;28;20221;-69
2023/08/02 03:39:48;;;;;;;4.32;3.88;;;13.00;99.90;;;13.65;100.00;96908.16;10395063;28;20321;-69
2023/08/02 03:44:51;;;;;;;5.63;3.70;;;13.10;99.90;;;13.75;100.00;96912.75;10396547;28;20234;-69
2023/08/02 03:49:54;;;;;;;3.92;3.63;;;13.20;99.90;;;13.88;100.00;96901.16;10402795;28;20241;-69
2023/08/02 03:54:59;;;;;;;3.80;3.50;;;13.30;99.90;;;13.88;100.00;96896.88;10402787;28;20225;-69
2023/08/02 04:00:02;;;;;;;4.45;3.60;;;13.30;99.90;;;13.98;100.00;96883.44;10404297;28;20237;-69
2023/08/02 04:05:06;;;;;;;3.58;3.28;;;13.40;99.90;;;14.04;100.00;96875.03;10384769;28;20232;-69
2023/08/02 04:10:11;;;;;;;5.65;3.33;;;13.40;99.90;;;13.98;100.00;96862.88;10401048;28;20233;-69
2023/08/02 04:15:14;;;;;;;5.03;3.65;;;13.40;99.90;;;14.08;100.00;96858.00;10403069;28;20305;-69
2023/08/02 04:20:17;;;;;;;3.85;3.47;;;13.50;99.90;;;14.19;100.00;96852.34;10401152;28;20310;-69
2023/08/02 04:25:21;;;;;;;3.75;3.45;;;13.60;99.90;;;14.34;100.00;96851.00;10403489;28;20258;-69
2023/08/02 04:30:25;;;;;;;4.57;3.25;;;13.80;99.90;;;14.45;100.00;96849.56;10402522;28;20234;-69
2023/08/02 04:35:30;;;;;;;4.03;2.97;;;13.80;99.90;;;14.35;100.00;96827.88;10401446;28;20225;-69
2023/08/02 04:40:38;;;;;;;4.95;3.28;;;13.60;99.90;;;14.31;100.00;96820.94;10402639;28;20237;-70
2023/08/02 04:45:41;;;;;;;5.15;3.63;;;13.60;99.90;;;14.29;100.00;96803.72;10383264;28;20234;-68
2023/08/02 04:50:44;;;;;;;6.40;3.15;;;13.70;99.90;;;14.34;100.00;96795.31;10402395;28;20922;-67
2023/08/02 04:55:49;;;;;;;3.70;3.35;;;13.70;99.90;;;14.46;100.00;96779.31;10401778;28;20222;-69
2023/08/02 05:00:52;;;;;;;4.55;4.20;;;13.90;99.90;;;14.73;100.00;96786.84;10399058;28;20783;-69
2023/08/02 05:05:59;;;;;;;4.97;4.50;;;14.10;99.90;;;14.82;100.00;96789.66;10403697;28;20299;-68
2023/08/02 05:11:05;;;;;;;4.85;4.45;;;14.20;99.90;;;14.87;100.00;96782.88;10383779;28;20222;-69
2023/08/02 05:16:13;;;;;;;5.13;4.63;;;14.30;99.90;;;14.92;100.00;96789.84;10402242;28;20721;-68
2023/08/02 05:21:18;;;;;;;3.67;3.38;;;14.40;99.90;;;14.87;100.00;96790.59;10377593;28;20230;-69
2023/08/02 05:26:23;;;;;;;4.30;3.90;;;14.40;99.90;;;14.94;100.00;96789.06;10398010;28;20949;-67
2023/08/02 05:31:27;;;;;;;4.50;4.10;;;14.50;99.90;;;15.04;100.00;96779.81;10401946;28;20225;-68
2023/08/02 05:36:30;;;;;;;4.38;3.70;;;14.60;99.90;;;15.07;100.00;96778.19;10398079;28;20232;-68
2023/08/02 05:41:35;;;;;;;4.38;3.97;;;14.70;99.90;;;15.06;100.00;96775.59;10402445;28;20240;-67
2023/08/02 05:46:38;;;;;;;3.80;3.50;;;14.70;99.90;;;15.10;100.00;96790.25;10400451;28;20237;-67
2023/08/02 05:51:42;;;;;;;4.65;3.97;;;14.80;99.90;;;15.14;100.00;96781.78;10390074;28;20218;-68
2023/08/02 05:56:47;;;;;;;5.28;3.72;;;14.80;99.90;;;15.17;100.00;96775.81;10393431;28;20214;-67
2023/08/02 06:01:50;;;;;;;4.35;3.92;;;14.80;99.90;;;15.26;100.00;96776.00;10396469;28;20240;-67
2023/08/02 06:06:53;;;;;;;5.60;5.10;;;14.90;99.90;;;15.24;100.00;96775.97;10392715;28;20241;-70
2023/08/02 06:11:58;;;;;;;5.40;4.95;;;14.90;99.90;;;15.32;100.00;96771.00;10394777;28;20237;-68
2023/08/02 06:17:01;;;;;;;6.10;4.68;;;14.90;99.90;;;15.39;100.00;96770.25;10398840;28;21010;-68
2023/08/02 06:22:04;;;;;;;6.63;5.85;;;14.90;99.90;;;15.41;100.00;96757.44;10402096;28;20230;-68
2023/08/02 06:27:09;;;;;;;6.25;5.40;;;14.90;99.90;;;15.25;100.00;96757.13;10398481;28;20238;-67
2023/08/02 06:32:12;;;;;;;7.78;5.75;;;14.90;99.90;;;15.42;100.00;96751.44;10399566;28;20630;-69
2023/08/02 06:37:15;;;;;;;8.20;5.97;;;14.90;99.90;;;15.44;100.00;96750.63;10396959;28;20639;-68
2023/08/02 06:42:20;;;;;;;8.48;6.28;;;15.00;99.90;;;15.38;100.00;96752.22;10400879;28;20626;-67
2023/08/02 06:47:23;;;;;;;7.13;6.53;;;14.90;99.90;;;15.34;100.00;96738.44;10401325;28;20241;-70
2023/08/02 06:52:26;;;;;;;7.13;6.43;;;15.00;99.90;;;15.38;100.00;96739.34;10397489;28;20224;-67
2023/08/02 06:57:31;;;;;;;8.68;6.63;;;15.00;99.90;;;15.36;100.00;96720.41;10404015;28;20226;-68
2023/08/02 07:02:34;;;;;;;7.38;6.68;;;15.10;99.90;;;15.35;100.00;96711.84;10395903;28;20221;-68
2023/08/02 07:07:38;;;;;;;7.05;6.35;;;15.10;99.90;;;15.45;100.00;96689.69;10400056;28;20315;-68
2023/08/02 07:12:42;;;;;;;8.32;7.60;;;15.10;99.90;;;15.56;100.00;96695.91;10398860;28;20305;-66
2023/08/02 07:17:46;;;;;;;9.05;8.15;;;15.20;99.90;;;15.79;100.00;96690.34;10400779;28;20230;-67
2023/08/02 07:22:49;;;;;;;9.07;8.20;;;15.50;99.90;;;15.82;100.00;96677.50;10393575;28;20213;-67
2023/08/02 07:27:53;;;;;;;9.13;8.23;;;15.50;99.90;;;15.86;100.00;96676.75;10397100;28;20743;-68
2023/08/02 07:32:56;;;;;;;9.00;7.80;;;15.50;99.90;;;15.88;100.00;96667.31;10380895;28;20232;-70
2023/08/02 07:38:00;;;;;;;8.77;7.97;;;15.60;99.90;;;15.97;100.00;96660.63;10398855;28;20607;-67
2023/08/02 07:43:04;;;;;;;9.88;8.60;;;15.60;99.90;;;16.26;100.00;96661.94;10398525;28;20321;-68
2023/08/02 07:48:08;;;;;;;9.73;8.82;;;15.90;99.90;;;16.48;100.00;96638.16;10392565;28;20237;-68
2023/08/02 07:53:11;;;;;;;11.15;8.23;;;16.10;99.90;;;16.66;100.00;96641.00;10391123;28;20558;-67
2023/08/02 07:58:17;;;;;;;12.23;8.80;;;16.30;99.90;;;16.82;100.00;96631.78;10394751;28;20226;-67
2023/08/02 08:03:20;;;;;;;9.15;8.25;;;16.50;99.90;;;16.90;100.00;96626.72;10395684;28;20225;-67
2023/08/02 08:08:23;;;;;;;8.70;7.90;;;16.50;99.90;;;16.89;100.00;96617.25;10394854;28;20233;-67
2023/08/02 08:13:28;;;;;;;9.25;8.35;;;16.50;99.90;;;16.98;100.00;96617.34;10397762;28;20305;-67
2023/08/02 08:18:32;;;;;;;12.50;9.27;;;16.60;99.90;;;17.07;100.00;96608.84;10399565;28;20233;-67
2023/08/02 08:23:36;;;;;;;12.32;8.70;;;16.80;99.90;;;17.23;100.00;96604.75;10396392;28;20697;-66
2023/08/02 08:28:40;;;;;;;8.88;7.97;;;16.90;99.90;;;17.40;100.00;96605.78;10395598;28;21109;-67
2023/08/02 08:33:43;;;;;;;8.38;7.55;;;17.00;99.90;;;17.39;100.00;96601.44;10403823;28;20279;-67
2023/08/02 08:38:46;;;;;;;7.90;7.25;;;17.00;99.90;;;17.25;100.00;96587.53;10406811;28;20233;-67
2023/08/02 08:43:54;;;;;;;7.97;7.18;;;17.00;99.90;;;17.26;100.00;96579.81;10405423;28;20225;-68
2023/08/02 08:48:58;;;;;;;8.07;7.30;;;16.90;99.90;;;17.33;100.00;96560.91;10404561;28;20656;-67
2023/08/02 08:54:06;;;;;;;8.60;7.70;;;17.00;99.90;;;17.28;100.00;96572.94;10404163;28;20225;-67
2023/08/02 08:59:10;;;;;;;9.80;7.15;;;16.90;99.90;;;17.29;100.00;96558.31;10407309;28;20221;-67
2023/08/02 09:04:14;;;;;;;6.55;5.95;;;16.90;99.90;;;17.22;100.00;96546.16;10403805;28;20232;-67
2023/08/02 09:09:17;;;;;;;7.60;6.80;;;16.90;99.90;;;17.22;100.00;96541.88;10403572;28;20244;-67
2023/08/02 09:14:21;;;;;;;7.55;6.82;;;16.90;99.90;;;17.30;100.00;96544.53;10405349;28;20969;-68
2023/08/02 09:19:28;;;;;;;10.40;7.20;;;17.10;99.90;;;17.40;100.00;96541.19;10393047;28;20284;-68
2023/08/02 09:24:35;;;;;;;7.07;6.47;;;17.10;99.90;;;17.45;100.00;96539.50;10402887;28;20325;-67
2023/08/02 09:29:47;;;;;;;7.07;6.45;;;17.10;99.90;;;17.55;100.00;96533.56;10407154;28;20304;-67
2023/08/02 09:34:53;;;;;;;6.80;6.20;;;17.20;99.90;;;17.53;100.00;96537.84;10404552;28;20221;-68
2023/08/02 09:39:56;;;;;;;6.38;5.82;;;17.20;99.90;;;17.50;100.00;96524.91;10389873;28;20786;-68
2023/08/02 09:45:03;;;;;;;7.03;5.97;;;17.10;99.90;;;17.69;100.00;96523.34;10369143;28;20214;-68
2023/08/02 09:50:09;;;;;;;6.88;6.28;;;17.30;99.90;;;17.71;100.00;96511.31;10402796;28;20226;-68
2023/08/02 09:55:13;;;;;;;19.65;9.73;;;17.30;99.90;;;17.69;100.00;96496.63;10406832;28;20221;-68
2023/08/02 10:00:18;;;;;;;7.10;5.47;;;17.30;99.90;;;17.70;100.00;96499.22;10403580;28;20238;-69
2023/08/02 10:05:22;;;;;;;5.78;5.28;;;17.30;99.90;;;17.87;100.00;96481.28;10405906;28;20229;-69
2023/08/02 10:10:29;;;;;;;6.00;5.50;;;17.50;99.90;;;18.02;100.00;96473.59;10403081;28;20225;-69
2023/08/02 10:15:35;;;;;;;5.63;5.13;;;17.70;99.90;;;18.15;100.00;96471.09;10396099;28;20222;-68
2023/08/02 10:20:39;;;;;;;6.13;5.53;;;17.80;99.90;;;18.30;100.00;96455.63;10403110;28;20804;-68
2023/08/02 10:25:43;;;;;;;5.65;5.15;;;18.00;99.90;;;18.78;100.00;96450.63;10404909;28;20236;-69
2023/08/02 10:30:48;;;;;;;6.15;5.55;;;18.40;99.90;;;18.80;100.00;96439.44;10401580;28;20653;-68
2023/08/02 10:36:02;;;;;;;4.68;4.35;;;18.50;99.90;;;19.09;100.00;96433.41;10403759;28;20222;-69
2023/08/02 10:41:07;;;;;;;6.22;5.72;;;18.70;99.90;;;19.38;100.00;96414.41;10400953;28;20237;-70
2023/08/02 10:46:21;;;;;;;6.65;6.07;;;19.00;99.90;;;19.53;100.00;96415.25;10395305;28;20230;-69
2023/08/02 10:51:31;;;;;;;6.78;6.07;;;19.20;99.90;;;19.53;100.00;96410.06;10397531;28;20230;-68
2023/08/02 10:56:34;;;;;;;6.28;5.78;;;19.20;99.90;;;19.42;100.00;96416.13;10395748;28;20289;-68
2023/08/02 11:01:55;;;;;;;7.93;7.20;;;19.00;99.90;;;19.53;100.00;96396.25;10396205;28;20233;-68
2023/08/02 11:07:12;;;;;;;6.88;6.22;;;19.20;99.90;;;19.50;100.00;96385.88;10400342;28;20229;-69
2023/08/02 11:12:18;;;;;;;7.72;7.03;;;19.20;99.90;;;19.35;100.00;96402.31;10402860;28;20584;-69
2023/08/02 11:17:25;;;;;;;7.72;7.00;;;19.00;99.90;;;19.31;100.00;96388.47;10398557;28;20233;-68
2023/08/02 11:22:36;;;;;;;8.07;7.38;;;18.90;99.90;;;19.24;100.00;96373.81;10397851;28;21075;-67
2023/08/02 11:27:40;;;;;;;7.93;7.22;;;18.80;99.90;;;19.14;100.00;96374.69;10397064;28;20230;-69
2023/08/02 11:32:48;;;;;;;7.88;7.07;;;18.70;99.90;;;19.22;100.00;96372.97;10398128;28;20225;-68
2023/08/02 11:37:52;;;;;;;8.65;7.85;;;18.80;99.90;;;19.29;100.00;96364.31;10395773;28;20229;-67
2023/08/02 11:42:55;;;;;;;7.75;7.03;;;18.90;99.90;;;19.29;100.00;96348.78;10388652;28;20222;-69
2023/08/02 11:48:00;;;;;;;7.93;7.22;;;18.90;99.90;;;19.33;100.00;96334.09;10408882;28;20225;-67
2023/08/02 11:53:08;;;;;;;8.05;7.35;;;18.90;99.90;;;19.29;100.00;96328.06;10404189;28;20685;-68
2023/08/02 11:58:12;;;;;;;8.80;7.90;;;18.80;99.90;;;19.17;100.00;96309.91;10400952;28;20725;-68
2023/08/02 12:03:17;;;;;;;8.02;7.32;;;18.80;99.90;;;19.40;100.00;96298.66;10403984;28;20677;-67
2023/08/02 12:08:21;;;;;;;8.40;7.60;;;19.10;99.90;;;19.77;100.00;96309.78;10404809;28;20669;-69
2023/08/02 12:13:24;;;;;;;8.35;7.65;;;19.50;99.90;;;20.19;100.00;96289.69;10409975;28;20682;-68
2023/08/02 12:18:29;;;;;;;8.10;7.40;;;19.80;99.90;;;20.43;100.00;96281.75;10408960;28;20244;-68
2023/08/02 12:23:33;;;;;;;7.25;6.65;;;20.00;99.90;;;20.66;100.00;96268.63;10407465;28;20303;-67
2023/08/02 12:28:46;;;;;;;7.75;7.13;;;20.20;99.90;;;20.72;100.00;96272.91;10406264;28;20639;-68
2023/08/02 12:33:51;;;;;;;7.95;6.90;;;20.30;99.90;;;20.77;100.00;96255.53;10402785;28;20222;-67
2023/08/02 12:38:55;;;;;;;7.03;6.32;;;20.50;99.90;;;21.13;100.00;96243.06;10408540;28;20225;-68
2023/08/02 12:43:58;;;;;;;7.47;6.88;;;20.80;99.90;;;21.50;100.00;96243.53;10407499;28;20227;-67
2023/08/02 12:49:06;;;;;;;8.85;6.82;;;21.10;99.90;;;21.62;100.00;96228.69;10405013;28;20313;-68
2023/08/02 12:54:10;;;;;;;6.97;6.38;;;21.20;99.90;;;21.81;100.00;96217.16;10400390;28;20234;-69
2023/08/02 12:59:13;;;;;;;6.45;5.93;;;21.40;99.90;;;22.04;100.00;96209.88;10382234;28;20238;-68
2023/08/02 13:04:17;;;;;;;6.80;6.20;;;21.60;99.90;;;22.30;100.00;96206.03;10380779;28;20579;-68
2023/08/02 13:09:20;;;;;;;7.32;6.32;;;21.90;99.90;;;22.45;100.00;96204.94;10408436;28;20447;-69
2023/08/02 13:14:25;;;;;;;6.03;5.53;;;21.90;99.90;;;22.34;100.00;96202.50;10407166;28;20313;-68
2023/08/02 13:19:30;;;;;;;6.97;6.28;;;21.80;99.90;;;22.39;100.00;96199.84;10403356;28;20237;-67
2023/08/02 13:24:33;;;;;;;6.88;6.38;;;21.90;99.90;;;22.23;100.00;96192.28;10407610;28;20232;-68
2023/08/02 13:29:36;;;;;;;6.85;6.22;;;21.70;99.90;;;22.00;100.00;96176.09;10404695;28;20237;-68
2023/08/02 13:34:41;;;;;;;6.38;5.88;;;21.50;99.90;;;21.87;100.00;96171.97;10404856;28;20222;-68
2023/08/02 13:39:44;;;;;;;8.15;7.43;;;21.40;99.90;;;21.89;100.00;96176.28;10408137;28;20735;-68
2023/08/02 13:44:47;;;;;;;8.43;7.65;;;21.40;99.90;;;21.90;100.00;96170.19;10403052;28;20230;-68
2023/08/02 13:49:54;;;;;;;7.63;6.90;;;21.40;99.90;;;21.84;100.00;96175.47;10398430;28;20244;-68
2023/08/02 13:54:57;;;;;;;7.88;7.28;;;21.40;99.90;;;21.84;100.00;96170.28;10408779;28;20234;-68
2023/08/02 14:00:01;;;;;;;7.97;7.18;;;21.30;99.90;;;21.80;100.00;96220.63;10404234;28;20229;-68
2023/08/02 14:05:06;;;;;;;8.85;8.05;;;21.40;99.90;;;21.80;100.00;96221.50;10405237;28;20533;-68
2023/08/02 14:10:10;;;;;;;8.50;7.70;;;21.30;99.90;;;21.74;100.00;96215.50;10404551;28;20689;-68
2023/08/02 14:15:13;;;;;;;8.35;7.65;;;21.30;99.90;;;21.65;100.00;96210.44;10401854;28;20230;-67
2023/08/02 14:20:18;;;;;;;9.50;8.50;;;21.20;99.90;;;21.69;100.00;96183.47;10401807;28;20225;-67
2023/08/02 14:25:21;;;;;;;8.60;7.90;;;21.20;99.90;;;21.62;100.00;96159.31;10370459;28;20223;-67
2023/08/02 14:30:25;;;;;;;8.68;7.78;;;21.20;99.90;;;21.65;100.00;96163.63;10365352;28;20233;-68
2023/08/02 14:35:29;;;;;;;9.07;8.18;;;21.20;99.90;;;21.57;100.00;96174.97;10380769;28;20413;-67
2023/08/02 14:40:32;;;;;;;10.98;9.95;;;21.10;99.90;;;21.44;100.00;96170.84;10391898;28;20237;-67
2023/08/02 14:45:35;;;;;;;8.35;7.55;;;20.90;99.90;;;21.33;100.00;96167.47;10396339;28;20221;-67
2023/08/02 14:50:40;;;;;;;7.43;6.72;;;20.90;99.90;;;21.24;100.00;96158.06;10397306;28;20245;-68
2023/08/02 14:55:43;;;;;;;7.13;6.53;;;20.80;99.90;;;21.14;100.00;96149.50;10396872;28;20236;-67
2023/08/02 15:00:49;;;;;;;8.43;7.53;;;20.70;99.90;;;20.96;100.00;96131.53;10396791;28;20225;-67
2023/08/02 15:05:54;;;;;;;8.02;7.25;;;20.50;99.90;;;20.95;100.00;96144.56;10388590;28;20607;-67
2023/08/02 15:10:57;;;;;;;7.00;6.50;;;20.50;99.90;;;20.88;100.00;96146.34;10390986;28;20229;-69
2023/08/02 15:16:00;;;;;;;8.32;7.63;;;20.40;99.90;;;20.99;100.00;96126.31;10395109;28;20301;-67
2023/08/02 15:21:05;;;;;;;8.32;7.55;;;20.50;99.90;;;21.18;100.00;96115.69;10391815;28;20222;-68
2023/08/02 15:26:08;;;;;;;7.95;7.22;;;20.70;99.90;;;21.11;100.00;96115.75;10392794;28;20771;-68
2023/08/02 15:31:11;;;;;;;9.27;8.30;;;20.70;99.90;;;21.09;100.00;96116.69;10396730;28;20233;-68
2023/08/02 15:36:16;;;;;;;9.15;8.25;;;20.70;99.90;;;21.13;100.00;96123.53;10389400;28;20311;-68
2023/08/02 15:41:19;;;;;;;8.48;7.53;;;20.70;99.90;;;21.24;100.00;96115.63;10395239;28;20244;-68
2023/08/02 15:46:22;;;;;;;8.43;7.53;;;20.90;99.90;;;21.31;100.00;96093.84;10399772;28;22934;-67
2023/08/02 15:51:26;;;;;;;8.80;7.40;;;20.90;99.90;;;21.31;100.00;96086.06;10400126;28;20563;-67
2023/08/02 15:56:30;;;;;;;7.75;7.03;;;20.90;99.90;;;21.17;100.00;96072.38;10399801;28;20225;-67
2023/08/02 16:01:33;;;;;;;7.88;7.18;;;20.80;99.90;;;21.32;100.00;96085.19;10431098;22;20252;-69
2023/08/02 16:06:37;;;;;;;9.70;8.80;;;20.90;99.90;;;21.19;100.00;96081.03;10436428;28;20267;-67
2023/08/02 16:11:44;;;;;;;8.85;8.05;;;20.90;99.90;;;21.26;100.00;96077.44;10402580;28;20230;-68
2023/08/02 16:16:47;;;;;;;8.25;7.43;;;20.90;99.90;;;21.22;100.00;96088.78;10388108;28;20226;-68
2023/08/02 16:21:51;;;;;;;9.23;8.20;;;20.80;99.90;;;21.33;100.00;96094.69;10386725;28;20874;-68
2023/08/02 16:26:55;;;;;;;8.48;7.68;;;20.90;99.90;;;21.41;100.00;96092.88;10399043;28;20532;-68
2023/08/02 16:31:59;;;;;;;8.85;8.05;;;20.90;99.90;;;21.34;100.00;96075.59;10387641;28;20267;-68
2023/08/02 16:37:03;;;;;;;10.73;8.80;;;20.90;99.90;;;21.30;100.00;96073.94;10383710;28;20226;-70
2023/08/02 16:42:07;;;;;;;8.98;8.07;;;20.90;99.90;;;21.39;100.00;96040.06;10386661;28;20230;-67
2023/08/02 16:47:10;;;;;;;7.47;6.78;;;20.90;99.90;;;21.40;100.00;96033.09;10386252;28;20242;-70
2023/08/02 16:52:15;;;;;;;6.25;5.45;;;20.90;99.90;;;21.43;100.00;96043.47;10389930;28;20229;-69
2023/08/02 16:57:18;;;;;;;6.47;5.75;;;20.90;99.90;;;21.35;100.00;96043.56;10390516;28;20230;-68
2023/08/02 17:02:21;;;;;;;6.78;6.18;;;20.90;99.90;;;21.41;100.00;96061.69;10401551;28;20233;-68
2023/08/02 17:07:25;;;;;;;6.65;5.97;;;20.90;99.90;;;21.47;100.00;96081.53;10401085;28;20238;-67
2023/08/02 17:12:28;;;;;;;6.22;5.55;;;21.00;99.90;;;21.47;100.00;96108.41;10399533;28;20234;-69
2023/08/02 17:17:32;;;;;;;6.78;6.18;;;21.00;99.90;;;21.31;100.00;96117.25;10401364;28;20766;-68
2023/08/02 17:22:36;;;;;;;6.30;5.68;;;20.80;99.90;;;21.23;100.00;96121.69;10394820;28;20221;-69
2023/08/02 17:27:39;;;;;;;5.93;5.43;;;20.70;99.90;;;21.09;100.00;96187.69;10399865;28;20626;-68
2023/08/02 17:32:42;;;;;;;6.10;5.60;;;20.60;99.90;;;21.04;100.00;96166.09;10400872;28;20732;-68
2023/08/02 17:37:47;;;;;;;7.10;5.68;;;20.50;99.90;;;21.14;100.00;96104.47;10396726;28;20225;-68
2023/08/02 17:42:50;;;;;;;6.30;5.38;;;20.60;99.90;;;20.73;100.00;96130.94;10399848;28;20225;-68
2023/08/02 17:47:53;;;;;;;6.15;5.57;;;20.30;99.90;;;20.59;100.00;96157.91;10394249;28;20606;-68
2023/08/02 17:52:58;;;;;;;6.40;5.80;;;20.10;99.90;;;20.35;100.00;96133.00;10394921;28;20368;-70
2023/08/02 17:58:01;;;;;;;6.68;5.95;;;19.90;99.90;;;20.15;100.00;96164.31;10375705;28;20256;-69
2023/08/02 18:03:04;;;;;;;5.97;5.38;;;19.80;99.90;;;20.08;100.00;96185.97;10388712;28;20229;-69
2023/08/02 18:08:09;;;;;;;6.28;5.78;;;19.60;99.90;;;20.07;100.00;96189.47;10376962;28;20601;-70
2023/08/02 18:13:12;;;;;;;6.25;5.60;;;19.50;99.90;;;19.95;100.00;96210.31;10386152;28;20233;-68
2023/08/02 18:18:15;;;;;;;7.35;6.65;;;19.50;99.90;;;19.82;100.00;96224.19;10381391;28;20213;-68
2023/08/02 18:23:20;;;;;;;6.82;6.20;;;19.30;99.90;;;19.75;100.00;96242.38;10384198;28;20229;-71
2023/08/02 18:28:23;;;;;;;6.95;5.07;;;19.30;99.90;;;19.58;100.00;96215.66;10385392;28;20225;-69
2023/08/02 18:33:26;;;;;;;4.45;3.92;;;19.30;99.90;;;19.31;100.00;96201.06;10378605;28;20520;-69
2023/08/02 18:38:30;;;;;;;4.65;4.25;;;19.10;99.90;;;19.13;100.00;96202.03;10374112;28;20238;-69
2023/08/02 18:43:34;;;;;;;4.20;3.80;;;18.90;99.90;;;19.02;100.00;96224.50;10382977;28;20233;-68
2023/08/02 18:48:37;;;;;;;4.50;4.10;;;18.80;99.90;;;19.02;100.00;96220.16;10382530;28;20225;-69
2023/08/02 18:53:42;;;;;;;4.85;4.28;;;18.70;99.90;;;19.00;100.00;96241.75;10379829;28;20669;-69
2023/08/02 18:58:47;;;;;;;5.10;4.70;;;18.70;99.90;;;19.05;100.00;96255.56;10382440;28;20229;-68
2023/08/02 19:03:51;;;;;;;4.53;4.13;;;18.70;99.90;;;19.13;100.00;96264.19;10380379;28;20229;-69
2023/08/02 19:08:58;;;;;;;6.72;4.55;;;18.80;99.90;;;19.10;100.00;96269.38;10384271;28;20856;-69
2023/08/02 19:14:01;;;;;;;5.03;4.53;;;18.80;99.90;;;19.28;100.00;96287.44;10379205;28;20226;-69
2023/08/02 19:19:04;;;;;;;5.55;4.97;;;18.90;99.90;;;19.34;100.00;96333.22;10384389;28;20222;-69
2023/08/02 19:24:10;;;;;;;5.63;5.13;;;18.90;99.90;;;19.34;100.00;96331.50;10379817;28;20782;-69
2023/08/02 19:29:20;;;;;;;5.88;5.28;;;19.00;99.90;;;19.35;100.00;96312.50;10384561;28;20237;-69
2023/08/02 19:34:30;;;;;;;4.72;4.32;;;19.00;99.90;;;19.42;100.00;96302.97;10373193;28;20963;-69
2023/08/02 19:39:34;;;;;;;4.43;4.13;;;19.10;99.90;;;19.35;100.00;96302.13;10384052;28;20228;-69
2023/08/02 19:44:50;;;;;;;5.15;4.65;;;19.10;99.90;;;19.35;100.00;96268.44;10369992;28;22193;-69
2023/08/02 19:49:55;;;;;;;4.32;3.45;;;19.10;99.90;;;19.23;100.00;96296.09;10381495;28;20646;-68
2023/08/02 19:55:02;;;;;;;4.78;3.72;;;19.00;99.90;;;19.16;100.00;96309.94;10376386;28;20727;-68
2023/08/02 20:00:08;;;;;;;5.03;3.25;;;18.90;99.90;;;18.87;100.00;96332.41;10383919;28;20233;-69
2023/08/02 20:05:16;;;;;;;3.03;2.83;;;18.70;99.90;;;18.64;100.00;96332.38;10386223;28;20747;-68
2023/08/02 20:10:52;;;;;;;2.60;2.40;;;18.40;99.90;;;18.47;100.00;96323.72;10381644;28;20233;-69
2023/08/02 20:15:55;;;;;;;2.50;2.25;;;18.30;99.90;;;18.33;100.00;96330.59;10382454;28;20651;-68
2023/08/02 20:20:58;;;;;;;2.80;2.55;;;18.20;99.90;;;18.15;100.00;96341.78;10376387;28;20229;-68
2023/08/02 20:26:19;;;;;;;3.15;2.17;;;18.00;99.90;;;18.08;100.00;96350.38;10382331;28;20606;-68
2023/08/02 20:31:25;;;;;;;2.63;2.40;;;18.00;99.90;;;17.88;100.00;96352.88;10389979;28;20233;-68
2023/08/02 20:36:28;;;;;;;2.60;2.40;;;17.70;99.90;;;17.93;100.00;96370.13;10383831;28;20704;-68
2023/08/02 20:41:32;;;;;;;2.70;2.50;;;17.70;99.90;;;17.84;100.00;96395.94;10382547;28;20226;-68
2023/08/02 20:46:36;;;;;;;2.38;2.17;;;17.60;99.90;;;17.59;100.00;96391.47;10386992;28;20615;-68
2023/08/02 20:51:43;;;;;;;2.42;2.22;;;17.30;99.90;;;17.44;100.00;96398.28;10383172;28;20237;-68